sensor_id;sensor_type;location;lat;lon;timestamp;pressure;altitude;pressure_sealevel;temperature;humidity
50636;BME280;36598;46.054;11.130;2023-02-04T05:01:42;99497.47;;;11.26;42.58
50636;BME280;36598;46.054;11.130;2023-02-04T05:04:07;99517.13;;;11.39;42.52
50636;BME280;36598;46.054;11.130;2023-02-04T05:06:32;99519.53;;;11.34;42.24
50636;BME280;36598;46.054;11.130;2023-02-04T05:08:57;99506.69;;;11.50;41.47
50636;BME280;36598;46.054;11.130;2023-02-04T05:11:23;99506.22;;;11.56;41.03
50636;BME280;36598;46.054;11.130;2023-02-04T05:13:48;99510.63;;;11.53;41.92
50636;BME280;36598;46.054;11.130;2023-02-04T05:16:13;99494.88;;;11.46;42.19
50636;BME280;36598;46.054;11.130;2023-02-04T05:18:40;99480.66;;;11.44;41.52
50636;BME280;36598;46.054;11.130;2023-02-04T05:21:05;99493.66;;;11.47;41.77
50636;BME280;36598;46.054;11.130;2023-02-04T05:23:31;99504.06;;;11.40;41.98
50636;BME280;36598;46.054;11.130;2023-02-04T05:25:57;99500.16;;;11.34;42.12
50636;BME280;36598;46.054;11.130;2023-02-04T05:28:23;99488.22;;;11.40;41.79
50636;BME280;36598;46.054;11.130;2023-02-04T05:30:48;99486.19;;;11.44;41.46
50636;BME280;36598;46.054;11.130;2023-02-04T05:33:14;99484.56;;;11.47;41.20
50636;BME280;36598;46.054;11.130;2023-02-04T05:35:39;99481.38;;;11.52;41.17
50636;BME280;36598;46.054;11.130;2023-02-04T05:38:04;99484.50;;;11.54;40.98
50636;BME280;36598;46.054;11.130;2023-02-04T05:40:30;99492.53;;;11.45;41.14
50636;BME280;36598;46.054;11.130;2023-02-04T05:42:55;99490.75;;;11.62;40.23
50636;BME280;36598;46.054;11.130;2023-02-04T05:45:20;99490.78;;;11.58;40.48
50636;BME280;36598;46.054;11.130;2023-02-04T05:47:45;99487.63;;;11.56;40.72
50636;BME280;36598;46.054;11.130;2023-02-04T05:50:11;99472.47;;;11.64;40.07
50636;BME280;36598;46.054;11.130;2023-02-04T05:52:36;99475.22;;;11.68;39.10
50636;BME280;36598;46.054;11.130;2023-02-04T05:55:02;99487.03;;;11.72;39.44
50636;BME280;36598;46.054;11.130;2023-02-04T05:57:27;99477.13;;;11.74;39.61
50636;BME280;36598;46.054;11.130;2023-02-04T05:59:53;99479.69;;;11.58;39.70
50636;BME280;36598;46.054;11.130;2023-02-04T06:02:18;99481.97;;;11.67;39.48
50636;BME280;36598;46.054;11.130;2023-02-04T06:04:44;99477.38;;;11.53;40.11
50636;BME280;36598;46.054;11.130;2023-02-04T06:07:09;99475.75;;;11.56;40.48
50636;BME280;36598;46.054;11.130;2023-02-04T06:09:34;99473.25;;;11.65;39.12
50636;BME280;36598;46.054;11.130;2023-02-04T06:11:59;99496.88;;;11.76;38.80
50636;BME280;36598;46.054;11.130;2023-02-04T06:14:25;99468.41;;;11.72;38.60
50636;BME280;36598;46.054;11.130;2023-02-04T06:16:50;99481.81;;;11.77;38.59
50636;BME280;36598;46.054;11.130;2023-02-04T06:19:15;99464.66;;;11.90;37.94
50636;BME280;36598;46.054;11.130;2023-02-04T06:21:40;99486.44;;;11.91;37.36
50636;BME280;36598;46.054;11.130;2023-02-04T06:24:06;99475.75;;;11.90;37.78
50636;BME280;36598;46.054;11.130;2023-02-04T06:26:31;99480.97;;;11.84;38.01
50636;BME280;36598;46.054;11.130;2023-02-04T06:28:56;99453.25;;;11.81;37.91
50636;BME280;36598;46.054;11.130;2023-02-04T06:31:21;99468.28;;;11.87;37.10
50636;BME280;36598;46.054;11.130;2023-02-04T06:33:47;99470.19;;;11.90;37.14
50636;BME280;36598;46.054;11.130;2023-02-04T06:36:12;99470.63;;;11.88;37.74
50636;BME280;36598;46.054;11.130;2023-02-04T06:38:38;99463.94;;;11.82;37.70
50636;BME280;36598;46.054;11.130;2023-02-04T06:41:03;99473.50;;;11.77;37.87
50636;BME280;36598;46.054;11.130;2023-02-04T06:43:28;99465.25;;;11.74;37.42
50636;BME280;36598;46.054;11.130;2023-02-04T06:45:53;99466.13;;;11.67;37.94
50636;BME280;36598;46.054;11.130;2023-02-04T06:48:19;99470.44;;;11.68;37.69
50636;BME280;36598;46.054;11.130;2023-02-04T06:50:44;99466.06;;;11.71;37.51
50636;BME280;36598;46.054;11.130;2023-02-04T06:53:09;99468.47;;;11.69;37.14
50636;BME280;36598;46.054;11.130;2023-02-04T06:55:35;99456.22;;;11.66;37.41
50636;BME280;36598;46.054;11.130;2023-02-04T06:58:00;99462.13;;;11.68;37.37
50636;BME280;36598;46.054;11.130;2023-02-04T07:00:26;99477.13;;;11.74;37.12
50636;BME280;36598;46.054;11.130;2023-02-04T07:02:52;99470.38;;;11.75;36.67
50636;BME280;36598;46.054;11.130;2023-02-04T07:05:17;99460.75;;;11.87;35.99
50636;BME280;36598;46.054;11.130;2023-02-04T07:07:42;99464.66;;;11.90;35.69
50636;BME280;36598;46.054;11.130;2023-02-04T07:10:07;99483.16;;;12.00;35.78
50636;BME280;36598;46.054;11.130;2023-02-04T07:12:33;99482.38;;;11.99;36.57
50636;BME280;36598;46.054;11.130;2023-02-04T07:14:58;99458.28;;;11.93;36.77
50636;BME280;36598;46.054;11.130;2023-02-04T07:17:23;99474.91;;;11.93;36.58
50636;BME280;36598;46.054;11.130;2023-02-04T07:19:49;99485.66;;;11.91;37.02
50636;BME280;36598;46.054;11.130;2023-02-04T07:22:14;99469.59;;;11.75;37.52
50636;BME280;36598;46.054;11.130;2023-02-04T07:24:39;99474.75;;;11.73;37.68
50636;BME280;36598;46.054;11.130;2023-02-04T07:27:05;99471.09;;;11.83;36.94
50636;BME280;36598;46.054;11.130;2023-02-04T07:29:30;99492.13;;;11.77;36.76
50636;BME280;36598;46.054;11.130;2023-02-04T07:31:55;99497.06;;;11.62;38.07
50636;BME280;36598;46.054;11.130;2023-02-04T07:34:20;99488.25;;;11.71;37.39
50636;BME280;36598;46.054;11.130;2023-02-04T07:36:46;99499.41;;;11.64;37.28
50636;BME280;36598;46.054;11.130;2023-02-04T07:39:11;99500.94;;;11.68;37.78
50636;BME280;36598;46.054;11.130;2023-02-04T07:41:36;99488.19;;;11.74;37.43
50636;BME280;36598;46.054;11.130;2023-02-04T07:44:02;99494.75;;;11.57;37.81
50636;BME280;36598;46.054;11.130;2023-02-04T07:46:27;99491.78;;;11.41;37.73
50636;BME280;36598;46.054;11.130;2023-02-04T07:48:52;99492.44;;;11.52;37.81
50636;BME280;36598;46.054;11.130;2023-02-04T07:51:18;99492.06;;;11.50;37.23
50636;BME280;36598;46.054;11.130;2023-02-04T07:53:43;99501.09;;;11.58;37.05
50636;BME280;36598;46.054;11.130;2023-02-04T07:56:08;99505.19;;;11.42;37.60
50636;BME280;36598;46.054;11.130;2023-02-04T07:58:33;99523.34;;;11.47;37.58
50636;BME280;36598;46.054;11.130;2023-02-04T08:00:59;99515.44;;;11.49;37.31
50636;BME280;36598;46.054;11.130;2023-02-04T08:03:25;99502.31;;;11.53;36.98
50636;BME280;36598;46.054;11.130;2023-02-04T08:05:50;99517.66;;;11.61;36.68
50636;BME280;36598;46.054;11.130;2023-02-04T08:08:15;99513.13;;;11.44;36.57
50636;BME280;36598;46.054;11.130;2023-02-04T08:10:41;99519.53;;;11.34;37.66
50636;BME280;36598;46.054;11.130;2023-02-04T08:13:06;99515.88;;;11.44;38.13
50636;BME280;36598;46.054;11.130;2023-02-04T08:15:31;99524.03;;;11.58;38.46
50636;BME280;36598;46.054;11.130;2023-02-04T08:17:57;99521.84;;;11.39;36.78
50636;BME280;36598;46.054;11.130;2023-02-04T08:20:22;99534.72;;;11.56;35.65
50636;BME280;36598;46.054;11.130;2023-02-04T08:22:47;99528.72;;;16.24;29.59
50636;BME280;36598;46.054;11.130;2023-02-04T08:25:13;99518.66;;;24.39;19.50
50636;BME280;36598;46.054;11.130;2023-02-04T08:27:38;99521.03;;;29.12;14.76
50636;BME280;36598;46.054;11.130;2023-02-04T08:30:03;99511.16;;;30.27;13.71
50636;BME280;36598;46.054;11.130;2023-02-04T08:32:29;99522.44;;;32.67;11.67
50636;BME280;36598;46.054;11.130;2023-02-04T08:34:55;99525.56;;;33.71;11.26
50636;BME280;36598;46.054;11.130;2023-02-04T08:37:20;99518.03;;;34.88;10.53
50636;BME280;36598;46.054;11.130;2023-02-04T08:39:45;99532.16;;;36.88;9.01
50636;BME280;36598;46.054;11.130;2023-02-04T08:42:14;99540.75;;;36.20;9.03
50636;BME280;36598;46.054;11.130;2023-02-04T08:44:40;99529.13;;;38.73;7.57
50636;BME280;36598;46.054;11.130;2023-02-04T08:47:05;99520.66;;;37.22;7.99
50636;BME280;36598;46.054;11.130;2023-02-04T08:49:30;99517.63;;;37.82;7.27
50636;BME280;36598;46.054;11.130;2023-02-04T08:51:56;99520.16;;;40.04;6.72
50636;BME280;36598;46.054;11.130;2023-02-04T08:54:21;99507.69;;;38.29;7.23
50636;BME280;36598;46.054;11.130;2023-02-04T08:56:46;99508.34;;;39.13;6.59
50636;BME280;36598;46.054;11.130;2023-02-04T08:59:12;99514.38;;;40.98;5.85
50636;BME280;36598;46.054;11.130;2023-02-04T09:01:37;99509.00;;;39.41;6.24
50636;BME280;36598;46.054;11.130;2023-02-04T09:04:02;99503.06;;;41.35;5.20
50636;BME280;36598;46.054;11.130;2023-02-04T09:06:28;99507.66;;;40.95;5.55
50636;BME280;36598;46.054;11.130;2023-02-04T09:08:53;99516.19;;;40.93;5.22
50636;BME280;36598;46.054;11.130;2023-02-04T09:11:18;99513.22;;;43.45;4.04
50636;BME280;36598;46.054;11.130;2023-02-04T09:13:43;99518.41;;;41.81;4.40
50636;BME280;36598;46.054;11.130;2023-02-04T09:16:09;99518.84;;;42.57;4.10
50636;BME280;36598;46.054;11.130;2023-02-04T09:18:34;99518.72;;;42.55;4.15
50636;BME280;36598;46.054;11.130;2023-02-04T09:21:00;99538.56;;;40.81;4.69
50636;BME280;36598;46.054;11.130;2023-02-04T09:23:25;99521.59;;;41.51;4.42
50636;BME280;36598;46.054;11.130;2023-02-04T09:25:50;99509.88;;;42.65;3.78
50636;BME280;36598;46.054;11.130;2023-02-04T09:28:16;99520.69;;;41.82;4.04
50636;BME280;36598;46.054;11.130;2023-02-04T09:30:41;99536.41;;;42.36;3.86
50636;BME280;36598;46.054;11.130;2023-02-04T09:33:07;99542.63;;;42.54;3.77
50636;BME280;36598;46.054;11.130;2023-02-04T09:35:33;99541.25;;;44.57;3.25
50636;BME280;36598;46.054;11.130;2023-02-04T09:37:58;99549.13;;;41.50;4.25
50636;BME280;36598;46.054;11.130;2023-02-04T09:40:25;99551.47;;;43.40;3.69
50636;BME280;36598;46.054;11.130;2023-02-04T09:42:51;99546.63;;;43.07;3.60
50636;BME280;36598;46.054;11.130;2023-02-04T09:45:22;99547.38;;;43.57;3.32
50636;BME280;36598;46.054;11.130;2023-02-04T09:47:48;99559.34;;;42.65;3.34
50636;BME280;36598;46.054;11.130;2023-02-04T09:50:14;99570.53;;;44.31;3.33
50636;BME280;36598;46.054;11.130;2023-02-04T09:52:40;99566.56;;;43.99;3.26
50636;BME280;36598;46.054;11.130;2023-02-04T09:55:15;99552.44;;;43.56;3.37
50636;BME280;36598;46.054;11.130;2023-02-04T09:57:41;99558.75;;;41.65;3.52
50636;BME280;36598;46.054;11.130;2023-02-04T10:00:25;99561.38;;;44.92;2.95
50636;BME280;36598;46.054;11.130;2023-02-04T10:02:50;99559.34;;;44.81;3.03
50636;BME280;36598;46.054;11.130;2023-02-04T10:05:37;99556.41;;;44.94;2.88
50636;BME280;36598;46.054;11.130;2023-02-04T10:08:03;99570.81;;;43.10;3.05
50636;BME280;36598;46.054;11.130;2023-02-04T10:10:30;99572.38;;;42.87;3.00
50636;BME280;36598;46.054;11.130;2023-02-04T10:12:57;99573.03;;;41.94;3.60
50636;BME280;36598;46.054;11.130;2023-02-04T10:15:24;99560.81;;;44.54;3.08
50636;BME280;36598;46.054;11.130;2023-02-04T10:18:00;99577.09;;;39.80;4.37
50636;BME280;36598;46.054;11.130;2023-02-04T10:20:25;99574.66;;;40.37;3.91
50636;BME280;36598;46.054;11.130;2023-02-04T10:22:51;99573.41;;;41.67;3.45
50636;BME280;36598;46.054;11.130;2023-02-04T10:25:18;99582.66;;;41.75;3.68
50636;BME280;36598;46.054;11.130;2023-02-04T10:27:50;99578.69;;;41.92;3.66
50636;BME280;36598;46.054;11.130;2023-02-04T10:30:20;99570.66;;;44.88;2.63
50636;BME280;36598;46.054;11.130;2023-02-04T10:32:46;99575.25;;;41.08;3.84
50636;BME280;36598;46.054;11.130;2023-02-04T10:35:13;99569.50;;;41.41;3.51
50636;BME280;36598;46.054;11.130;2023-02-04T10:37:38;99569.78;;;45.70;2.28
50636;BME280;36598;46.054;11.130;2023-02-04T10:40:04;99570.88;;;47.73;1.80
50636;BME280;36598;46.054;11.130;2023-02-04T10:42:29;99563.50;;;42.85;2.92
50636;BME280;36598;46.054;11.130;2023-02-04T10:44:55;99557.53;;;42.48;3.12
50636;BME280;36598;46.054;11.130;2023-02-04T10:47:28;99552.06;;;39.85;3.83
50636;BME280;36598;46.054;11.130;2023-02-04T10:49:56;99549.41;;;44.19;2.67
50636;BME280;36598;46.054;11.130;2023-02-04T10:52:25;99554.56;;;41.35;3.38
50636;BME280;36598;46.054;11.130;2023-02-04T10:54:54;99554.88;;;40.65;3.77
50636;BME280;36598;46.054;11.130;2023-02-04T10:57:23;99548.69;;;42.81;2.93
50636;BME280;36598;46.054;11.130;2023-02-04T10:59:51;99552.63;;;44.51;2.47
50636;BME280;36598;46.054;11.130;2023-02-04T11:02:39;99542.50;;;42.28;3.36
50636;BME280;36598;46.054;11.130;2023-02-04T11:05:22;99555.78;;;42.55;2.82
50636;BME280;36598;46.054;11.130;2023-02-04T11:07:48;99550.03;;;40.07;3.71
50636;BME280;36598;46.054;11.130;2023-02-04T11:10:15;99541.22;;;42.90;3.06
50636;BME280;36598;46.054;11.130;2023-02-04T11:12:42;99547.16;;;39.10;3.92
50636;BME280;36598;46.054;11.130;2023-02-04T11:18:01;99544.09;;;41.63;2.95
50636;BME280;36598;46.054;11.130;2023-02-04T11:20:29;99550.88;;;39.30;3.59
50636;BME280;36598;46.054;11.130;2023-02-04T11:22:55;99537.53;;;38.78;4.37
50636;BME280;36598;46.054;11.130;2023-02-04T11:25:33;99539.47;;;38.76;3.88
50636;BME280;36598;46.054;11.130;2023-02-04T11:27:59;99538.19;;;41.18;3.45
50636;BME280;36598;46.054;11.130;2023-02-04T11:30:29;99526.81;;;39.37;3.61
50636;BME280;36598;46.054;11.130;2023-02-04T11:33:00;99529.72;;;39.66;3.62
50636;BME280;36598;46.054;11.130;2023-02-04T11:35:26;99529.47;;;39.93;3.89
50636;BME280;36598;46.054;11.130;2023-02-04T11:37:53;99517.34;;;39.56;3.27
50636;BME280;36598;46.054;11.130;2023-02-04T11:40:34;99524.41;;;38.68;4.19
50636;BME280;36598;46.054;11.130;2023-02-04T11:43:07;99530.50;;;40.79;3.02
50636;BME280;36598;46.054;11.130;2023-02-04T11:45:33;99528.03;;;39.24;3.85
50636;BME280;36598;46.054;11.130;2023-02-04T11:48:03;99515.81;;;38.41;4.12
50636;BME280;36598;46.054;11.130;2023-02-04T11:50:35;99516.72;;;38.43;4.43
50636;BME280;36598;46.054;11.130;2023-02-04T11:53:02;99515.47;;;38.83;4.34
50636;BME280;36598;46.054;11.130;2023-02-04T11:55:29;99500.22;;;38.73;4.32
50636;BME280;36598;46.054;11.130;2023-02-04T11:57:55;99498.69;;;39.88;3.31
50636;BME280;36598;46.054;11.130;2023-02-04T12:00:22;99509.31;;;35.82;4.80
50636;BME280;36598;46.054;11.130;2023-02-04T12:02:58;99507.59;;;36.61;4.55
50636;BME280;36598;46.054;11.130;2023-02-04T12:05:42;99495.22;;;35.05;4.93
50636;BME280;36598;46.054;11.130;2023-02-04T12:08:12;99501.97;;;34.54;5.22
50636;BME280;36598;46.054;11.130;2023-02-04T12:10:37;99497.06;;;33.29;6.14
50636;BME280;36598;46.054;11.130;2023-02-04T12:13:10;99505.69;;;31.14;6.27
50636;BME280;36598;46.054;11.130;2023-02-04T12:15:36;99502.22;;;29.04;7.80
50636;BME280;36598;46.054;11.130;2023-02-04T12:18:02;99507.53;;;28.34;7.77
50636;BME280;36598;46.054;11.130;2023-02-04T12:20:28;99503.31;;;27.80;7.96
50636;BME280;36598;46.054;11.130;2023-02-04T12:22:53;99532.88;;;26.35;8.69
50636;BME280;36598;46.054;11.130;2023-02-04T12:25:18;99504.19;;;25.77;8.99
50636;BME280;36598;46.054;11.130;2023-02-04T12:27:44;99489.03;;;26.02;9.12
50636;BME280;36598;46.054;11.130;2023-02-04T12:30:10;99490.84;;;26.00;8.86
50636;BME280;36598;46.054;11.130;2023-02-04T12:32:35;99501.81;;;25.69;9.24
50636;BME280;36598;46.054;11.130;2023-02-04T12:35:01;99488.56;;;25.21;9.67
50636;BME280;36598;46.054;11.130;2023-02-04T12:37:26;99490.66;;;24.84;9.08
50636;BME280;36598;46.054;11.130;2023-02-04T12:39:51;99484.56;;;23.64;9.90
50636;BME280;36598;46.054;11.130;2023-02-04T12:42:17;99479.88;;;23.61;9.85
50636;BME280;36598;46.054;11.130;2023-02-04T12:44:42;99490.13;;;23.59;10.19
50636;BME280;36598;46.054;11.130;2023-02-04T12:47:07;99492.91;;;23.12;9.78
50636;BME280;36598;46.054;11.130;2023-02-04T12:49:33;99489.75;;;23.25;9.96
50636;BME280;36598;46.054;11.130;2023-02-04T12:51:58;99496.03;;;22.44;10.27
50636;BME280;36598;46.054;11.130;2023-02-04T12:54:26;99488.91;;;22.28;10.09
50636;BME280;36598;46.054;11.130;2023-02-04T12:56:51;99500.94;;;22.79;10.57
50636;BME280;36598;46.054;11.130;2023-02-04T12:59:17;99491.06;;;22.89;10.34
50636;BME280;36598;46.054;11.130;2023-02-04T13:01:42;99477.25;;;22.91;10.59
50636;BME280;36598;46.054;11.130;2023-02-04T13:04:08;99488.00;;;22.37;10.19
50636;BME280;36598;46.054;11.130;2023-02-04T13:06:33;99474.22;;;22.74;10.10
50636;BME280;36598;46.054;11.130;2023-02-04T13:08:58;99486.41;;;22.50;9.82
50636;BME280;36598;46.054;11.130;2023-02-04T13:11:24;99495.19;;;22.38;9.97
50636;BME280;36598;46.054;11.130;2023-02-04T13:13:49;99485.59;;;22.30;9.74
50636;BME280;36598;46.054;11.130;2023-02-04T13:16:14;99483.03;;;22.46;9.95
50636;BME280;36598;46.054;11.130;2023-02-04T13:18:41;99485.03;;;22.61;10.26
50636;BME280;36598;46.054;11.130;2023-02-04T13:21:07;99488.91;;;22.63;10.20
50636;BME280;36598;46.054;11.130;2023-02-04T13:23:32;99485.72;;;22.56;9.63
50636;BME280;36598;46.054;11.130;2023-02-04T13:25:57;99491.47;;;22.61;9.93
50636;BME280;36598;46.054;11.130;2023-02-04T13:28:23;99492.75;;;22.81;9.84
50636;BME280;36598;46.054;11.130;2023-02-04T13:30:48;99491.13;;;22.74;10.05
50636;BME280;36598;46.054;11.130;2023-02-04T13:33:13;99489.47;;;23.03;9.94
50636;BME280;36598;46.054;11.130;2023-02-04T13:35:38;99489.69;;;22.99;9.98
50636;BME280;36598;46.054;11.130;2023-02-04T13:38:04;99493.59;;;22.87;9.85
50636;BME280;36598;46.054;11.130;2023-02-04T13:40:30;99490.53;;;22.35;9.45
50636;BME280;36598;46.054;11.130;2023-02-04T13:42:55;99495.44;;;22.19;9.82
50636;BME280;36598;46.054;11.130;2023-02-04T13:45:20;99504.53;;;21.99;9.47
50636;BME280;36598;46.054;11.130;2023-02-04T13:47:46;99504.25;;;22.12;9.45
50636;BME280;36598;46.054;11.130;2023-02-04T13:50:11;99508.91;;;22.00;9.75
50636;BME280;36598;46.054;11.130;2023-02-04T13:52:37;99519.69;;;21.87;9.97
50636;BME280;36598;46.054;11.130;2023-02-04T13:55:02;99516.84;;;21.87;9.83
50636;BME280;36598;46.054;11.130;2023-02-04T13:57:27;99511.25;;;22.02;9.63
50636;BME280;36598;46.054;11.130;2023-02-04T13:59:54;99508.34;;;22.26;9.48
50636;BME280;36598;46.054;11.130;2023-02-04T14:02:20;99514.28;;;22.13;9.75
50636;BME280;36598;46.054;11.130;2023-02-04T14:04:47;99524.34;;;21.75;10.10
50636;BME280;36598;46.054;11.130;2023-02-04T14:07:12;99517.72;;;21.79;10.33
50636;BME280;36598;46.054;11.130;2023-02-04T14:09:38;99516.09;;;22.02;9.74
50636;BME280;36598;46.054;11.130;2023-02-04T14:12:04;99521.13;;;21.83;9.74
50636;BME280;36598;46.054;11.130;2023-02-04T14:14:29;99524.16;;;21.94;9.96
50636;BME280;36598;46.054;11.130;2023-02-04T14:16:54;99522.63;;;21.93;9.46
50636;BME280;36598;46.054;11.130;2023-02-04T14:19:19;99528.91;;;21.88;10.00
50636;BME280;36598;46.054;11.130;2023-02-04T14:21:45;99524.34;;;21.75;9.92
50636;BME280;36598;46.054;11.130;2023-02-04T14:24:11;99532.44;;;21.44;9.95
50636;BME280;36598;46.054;11.130;2023-02-04T14:26:36;99530.28;;;21.39;9.92
50636;BME280;36598;46.054;11.130;2023-02-04T14:29:01;99531.34;;;21.17;10.10
50636;BME280;36598;46.054;11.130;2023-02-04T14:31:28;99542.84;;;21.29;10.28
50636;BME280;36598;46.054;11.130;2023-02-04T14:33:53;99543.03;;;21.25;10.01
50636;BME280;36598;46.054;11.130;2023-02-04T14:36:20;99544.09;;;21.04;10.51
50636;BME280;36598;46.054;11.130;2023-02-04T14:38:46;99547.25;;;20.96;10.35
50636;BME280;36598;46.054;11.130;2023-02-04T14:41:11;99546.50;;;20.63;9.66
50636;BME280;36598;46.054;11.130;2023-02-04T14:43:40;99542.66;;;20.42;10.13
50636;BME280;36598;46.054;11.130;2023-02-04T14:46:05;99553.44;;;20.43;10.34
50636;BME280;36598;46.054;11.130;2023-02-04T14:48:30;99557.31;;;20.46;10.46
50636;BME280;36598;46.054;11.130;2023-02-04T14:50:56;99550.84;;;20.12;9.97
50636;BME280;36598;46.054;11.130;2023-02-04T14:53:21;99553.13;;;19.62;10.07
50636;BME280;36598;46.054;11.130;2023-02-04T14:55:46;99562.72;;;19.34;10.49
50636;BME280;36598;46.054;11.130;2023-02-04T14:58:12;99565.03;;;19.08;10.91
50636;BME280;36598;46.054;11.130;2023-02-04T15:00:37;99570.72;;;18.76;11.28
50636;BME280;36598;46.054;11.130;2023-02-04T15:03:02;99581.31;;;18.82;11.22
50636;BME280;36598;46.054;11.130;2023-02-04T15:05:28;99579.97;;;18.64;10.77
50636;BME280;36598;46.054;11.130;2023-02-04T15:07:53;99582.34;;;18.44;10.79
50636;BME280;36598;46.054;11.130;2023-02-04T15:10:18;99583.00;;;18.48;11.04
50636;BME280;36598;46.054;11.130;2023-02-04T15:12:44;99593.31;;;18.51;10.79
50636;BME280;36598;46.054;11.130;2023-02-04T15:15:09;99590.38;;;18.33;11.13
50636;BME280;36598;46.054;11.130;2023-02-04T15:17:35;99596.34;;;17.91;11.48
50636;BME280;36598;46.054;11.130;2023-02-04T15:20:00;99603.16;;;17.90;11.44
50636;BME280;36598;46.054;11.130;2023-02-04T15:22:27;99614.25;;;17.93;11.61
50636;BME280;36598;46.054;11.130;2023-02-04T15:24:53;99615.66;;;17.98;11.76
50636;BME280;36598;46.054;11.130;2023-02-04T15:27:18;99620.88;;;17.87;11.43
50636;BME280;36598;46.054;11.130;2023-02-04T15:29:43;99619.31;;;17.86;11.21
50636;BME280;36598;46.054;11.130;2023-02-04T15:32:09;99622.69;;;17.81;11.36
50636;BME280;36598;46.054;11.130;2023-02-04T15:34:34;99634.22;;;17.83;11.92
50636;BME280;36598;46.054;11.130;2023-02-04T15:37:00;99635.34;;;17.72;12.06
50636;BME280;36598;46.054;11.130;2023-02-04T15:39:25;99639.22;;;17.53;11.95
50636;BME280;36598;46.054;11.130;2023-02-04T15:41:51;99643.63;;;17.28;12.14
50636;BME280;36598;46.054;11.130;2023-02-04T15:44:17;99654.59;;;17.36;11.99
50636;BME280;36598;46.054;11.130;2023-02-04T15:46:42;99658.47;;;17.38;12.00
50636;BME280;36598;46.054;11.130;2023-02-04T15:49:07;99667.91;;;17.32;11.88
50636;BME280;36598;46.054;11.130;2023-02-04T15:51:33;99672.28;;;17.07;11.58
50636;BME280;36598;46.054;11.130;2023-02-04T15:53:58;99680.75;;;17.16;12.24
50636;BME280;36598;46.054;11.130;2023-02-04T15:56:23;99692.31;;;17.06;12.42
50636;BME280;36598;46.054;11.130;2023-02-04T15:58:49;99701.69;;;17.12;12.64
50636;BME280;36598;46.054;11.130;2023-02-04T16:01:15;99701.13;;;17.04;12.58
50636;BME280;36598;46.054;11.130;2023-02-04T16:03:40;99712.84;;;16.86;12.85
50636;BME280;36598;46.054;11.130;2023-02-04T16:06:10;99719.53;;;16.76;13.25
50636;BME280;36598;46.054;11.130;2023-02-04T16:08:36;99722.38;;;16.89;13.19
50636;BME280;36598;46.054;11.130;2023-02-04T16:11:01;99739.03;;;16.63;13.36
50636;BME280;36598;46.054;11.130;2023-02-04T16:13:26;99746.19;;;16.64;13.52
50636;BME280;36598;46.054;11.130;2023-02-04T16:15:51;99753.06;;;16.76;13.14
50636;BME280;36598;46.054;11.130;2023-02-04T16:18:17;99752.75;;;16.45;12.92
50636;BME280;36598;46.054;11.130;2023-02-04T16:20:42;99764.16;;;16.50;12.66
50636;BME280;36598;46.054;11.130;2023-02-04T16:23:07;99764.69;;;16.45;12.43
50636;BME280;36598;46.054;11.130;2023-02-04T16:25:33;99758.66;;;16.47;12.60
50636;BME280;36598;46.054;11.130;2023-02-04T16:27:58;99779.44;;;16.46;13.10
50636;BME280;36598;46.054;11.130;2023-02-04T16:30:23;99788.69;;;15.97;13.39
50636;BME280;36598;46.054;11.130;2023-02-04T16:32:49;99785.59;;;16.24;13.23
50636;BME280;36598;46.054;11.130;2023-02-04T16:35:14;99804.09;;;16.18;13.26
50636;BME280;36598;46.054;11.130;2023-02-04T16:37:39;99812.75;;;16.24;13.50
50636;BME280;36598;46.054;11.130;2023-02-04T16:40:05;99812.13;;;16.16;13.82
50636;BME280;36598;46.054;11.130;2023-02-04T16:42:30;99830.81;;;16.03;13.81
50636;BME280;36598;46.054;11.130;2023-02-04T16:44:56;99841.09;;;15.73;14.29
50636;BME280;36598;46.054;11.130;2023-02-04T16:47:21;99843.63;;;15.68;14.60
50636;BME280;36598;46.054;11.130;2023-02-04T16:49:47;99852.13;;;15.41;14.28
50636;BME280;36598;46.054;11.130;2023-02-04T16:52:13;99854.41;;;15.46;14.08
50636;BME280;36598;46.054;11.130;2023-02-04T16:54:38;99869.25;;;15.43;14.00
50636;BME280;36598;46.054;11.130;2023-02-04T16:57:03;99871.19;;;15.62;14.22
50636;BME280;36598;46.054;11.130;2023-02-04T16:59:29;99888.06;;;15.39;14.55
50636;BME280;36598;46.054;11.130;2023-02-04T17:01:55;99889.03;;;15.28;14.81
50636;BME280;36598;46.054;11.130;2023-02-04T17:04:24;99887.66;;;15.20;15.55
50636;BME280;36598;46.054;11.130;2023-02-04T17:06:50;99894.56;;;15.32;14.92
50636;BME280;36598;46.054;11.130;2023-02-04T17:09:15;99894.84;;;15.18;15.29
50636;BME280;36598;46.054;11.130;2023-02-04T17:11:40;99901.94;;;15.22;15.33
50636;BME280;36598;46.054;11.130;2023-02-04T17:14:06;99913.53;;;15.21;15.35
50636;BME280;36598;46.054;11.130;2023-02-04T17:16:36;99923.88;;;15.00;15.73
50636;BME280;36598;46.054;11.130;2023-02-04T17:19:02;99927.28;;;14.88;16.48
50636;BME280;36598;46.054;11.130;2023-02-04T17:21:27;99928.31;;;14.74;16.49
50636;BME280;36598;46.054;11.130;2023-02-04T17:23:53;99944.47;;;14.60;15.95
50636;BME280;36598;46.054;11.130;2023-02-04T17:26:27;99940.19;;;14.78;15.39
50636;BME280;36598;46.054;11.130;2023-02-04T17:28:52;99944.47;;;14.83;15.61
50636;BME280;36598;46.054;11.130;2023-02-04T17:31:17;99949.94;;;14.67;15.71
50636;BME280;36598;46.054;11.130;2023-02-04T17:33:43;99966.84;;;14.56;15.84
50636;BME280;36598;46.054;11.130;2023-02-04T17:36:08;99957.81;;;14.48;16.55
50636;BME280;36598;46.054;11.130;2023-02-04T17:38:34;99960.63;;;14.45;16.29
50636;BME280;36598;46.054;11.130;2023-02-04T17:40:59;99962.44;;;13.74;17.44
50636;BME280;36598;46.054;11.130;2023-02-04T17:43:26;99979.09;;;13.77;17.73
50636;BME280;36598;46.054;11.130;2023-02-04T17:45:52;99986.06;;;13.93;18.00
50636;BME280;36598;46.054;11.130;2023-02-04T17:48:17;99976.22;;;13.85;17.79
50636;BME280;36598;46.054;11.130;2023-02-04T17:50:42;99991.69;;;13.17;18.76
50636;BME280;36598;46.054;11.130;2023-02-04T17:53:09;100002.47;;;13.12;18.18